Airfield :
LOGIN :

Register | Disclaimer

   EN    FR    IT 

 










Legend :    VFR   Marginal VFR   IFR   Intensive IFR   Very Intensive IFR
Visi :
Ceiling :
>= 8 km
>= 3000ft
5 to 8 km
1000 to 3000 ft
1500m to 5 km
500 to 1000 ft
800 to 1500m
200 to 500 ft
< 800m
< 200 ft
Symbols :   Thunderstorms  Fog  Heavy snow  Heavy precipitations  Wind > 20 kt
SIGMETs :     Misc.  Thunderstorms  Icing  Turbulence  Mountain Waves  Volcanic Ashes







- Airport Elevation : 408 ft
- IATA code : SOB


LHSM - Sarmellek Balaton

CURRENT METAR :
  • 180715Z 30006KT CAVOK M00/M04 Q1013 NOSIG

EXPIRED METARs :
  • 180645Z 30008KT CAVOK M00/M04 Q1013 NOSIG
  • 180615Z 28008KT CAVOK M00/M04 Q1013 NOSIG
  • 180545Z 31007KT CAVOK M01/M04 Q1013 NOSIG
  • 180515Z 31005KT CAVOK M00/M04 Q1013 NOSIG
  • 180445Z 28005KT CAVOK 01/M04 Q1013 NOSIG

TAF TAF LHSM
Valid from the 18 at 06:00 until the 18 at 15:00 UTC


180515Z 1806/1815 28010KT CAVOK
BECMG 1809/1812 20009KT
TEMPO 1813/1815 20010G20KT
No reported NOTAMs for that airfield.
1 SIGMET reported for the Budapest FIR (LHCC) :
 
Severe turbulence
LHCC SIGMET 01 VALID 180515/180915 LHBP
LHCC BUDAPEST FIR SEV TURB FCST E OF E01920 FL180/310 MOV E WKN=



MET'MAP, your aeronautical weather chart ! - Copyright ORBIFLY December 2007 - Disclaimer

ORBIFLY MET'MAP TEAM :

Programming & Development : Alexandra Zaïnal
Concept & Development : Baudouin d'Aumeries
Co-Development & Prog : Marc-Olivier Méhu
Technical & hardware support : Manuel Goepfert

Contact : metmap@orbifly.com




SOURCES & CREDITS :

   NOAA